EDT,Max TemperatureF,Mean TemperatureF,Min TemperatureF,Max Dew PointF,MeanDew PointF,Min DewpointF,Max Humidity, Mean Humidity, Min Humidity, Max Sea Level PressureIn, Mean Sea Level PressureIn, Min Sea Level PressureIn, Max VisibilityMiles, Mean VisibilityMiles, Min VisibilityMiles, Max Wind SpeedMPH, Mean Wind SpeedMPH, Max Gust SpeedMPH,PrecipitationIn, CloudCover, Events, WindDirDegrees
2013-3-1,35,32,30,34,31,30,100,99,87,29.90,29.87,29.83,5,2,0,10,6,,0.11,8,Snow,311
2013-3-2,30,26,23,30,26,21,100,96,80,29.94,29.88,29.84,7,3,1,13,6,21,0.00,8,Snow,334
2013-3-3,28,24,21,23,20,18,100,85,69,29.99,29.94,29.91,10,2,0,13,6,18,0.00,8,Snow,294
2013-3-4,44,30,17,28,21,16,100,69,37,30.09,30.03,29.98,10,6,1,7,3,,0.15,4,Rain,220
2013-3-5,44,37,30,45,38,27,100,89,53,30.00,29.79,29.56,10,7,0,31,8,39,0.48,8,Fog-Rain-Snow,188
2013-3-6,30,28,26,30,28,25,100,99,93,30.15,29.91,29.67,7,3,0,17,12,29,0.00,8,Snow,284
2013-3-7,30,28,26,30,28,27,100,95,86,30.28,30.22,30.14,10,5,2,9,5,,0.04,8,,314
2013-3-8,37,32,26,32,28,27,100,88,70,30.34,30.30,30.25,7,4,1,10,4,,0.00,4,,340
2013-3-9,62,45,28,32,28,23,93,54,24,30.30,30.23,30.18,10,8,2,8,2,,0.00,1,,171
2013-3-10,68,59,50,36,31,27,44,37,28,30.18,30.11,30.01,10,9,5,20,10,28,0.00,1,,170
2013-3-11,59,54,48,52,44,32,100,73,44,30.02,29.89,29.79,10,7,3,25,14,40,0.16,5,Rain,171
2013-3-12,48,40,33,48,34,30,100,87,61,30.02,29.94,29.83,7,4,2,9,6,,0.04,5,Rain,294
2013-3-13,35,30,26,32,25,18,100,77,60,30.20,30.08,29.99,10,6,0,17,9,26,0.00,7,Snow,281
2013-3-14,41,32,23,19,18,16,86,63,39,30.27,30.21,30.16,10,10,7,13,7,22,0.00,4,Snow,299
2013-3-15,59,44,30,37,29,18,81,61,41,30.18,30.03,29.91,10,10,10,18,7,25,0.00,2,,226
2013-3-16,68,59,50,54,46,39,94,67,46,29.94,29.84,29.76,10,10,7,23,14,32,0.05,4,Rain-Thunderstorm,244
2013-3-17,53,47,41,46,44,41,100,97,77,30.03,29.97,29.92,10,4,0,9,3,,0.03,8,Fog-Rain,20
2013-3-18,51,46,42,50,46,41,100,97,76,29.93,29.86,29.78,10,9,2,17,10,26,0.61,6,Rain-Thunderstorm,171
2013-3-19,50,42,33,50,27,9,100,61,27,30.08,29.98,29.81,10,10,5,24,11,32,0.03,2,Rain,272
2013-3-20,44,36,28,32,18,10,100,51,29,30.07,29.96,29.81,10,9,0,21,8,31,0.00,3,Snow,271
2013-3-21,30,24,17,19,14,10,80,66,51,29.94,29.86,29.81,10,10,7,17,9,24,0.00,6,Snow,307
2013-3-22,42,28,15,19,15,12,86,58,33,30.00,29.95,29.92,10,10,10,12,2,,0.00,3,,243
2013-3-23,48,40,33,34,27,18,70,61,48,29.98,29.94,29.83,10,10,10,6,2,,0.00,6,,327
2013-3-24,44,42,39,45,40,32,100,93,66,29.81,29.58,29.37,10,8,0,15,5,22,0.53,7,Rain-Thunderstorm,165
2013-3-25,39,34,28,39,29,27,100,92,80,29.85,29.61,29.45,10,4,0,22,14,32,0.06,8,Rain-Snow,255
2013-3-26,32,30,28,30,28,27,100,92,80,30.16,30.00,29.86,10,6,1,14,10,22,0.00,8,Snow,287
2013-3-27,33,30,28,28,24,21,93,76,64,30.24,30.21,30.15,10,10,5,13,7,18,0.00,7,Snow,292
2013-3-28,44,37,30,30,24,21,75,62,43,30.28,30.25,30.21,10,10,10,12,5,10,0.00,3,,305
2013-3-29,51,40,30,36,28,23,100,66,38,30.30,30.25,30.21,10,10,10,15,3,18,0.00,4,,239
2013-3-30,55,44,32,39,35,32,100,73,41,30.22,30.14,30.02,10,9,0,12,3,17,0.00,3,Fog,164
2013-3-31,53,48,44,52,46,39,100,92,66,30.01,29.89,29.84,10,9,4,15,8,23,0.11,7,Rain,223